Time;durP1;ratioP1;P1;durP2;ratioP2;P2;SDS_P1;SDS_P2;PMS_P1;PMS_P2;Temp;Humidity;BMP_temperature;BMP_pressure;BME280_temperature;BME280_humidity;BME280_pressure;Samples;Min_cycle;Max_cycle;Signal;HPM_P1;HPM_P2
2023/03/26 14:39:22;;;;;;;7.87;1.40;;;22.10;61.50;;;;;;5083272;27;20354;-68
2023/03/26 14:41:52;;;;;;;9.85;1.65;;;22.40;54.50;;;;;;5046287;28;20053;-69
2023/03/26 14:54:23;;;;;;;9.03;1.50;;;21.10;63.80;;;;;;5072055;28;20486;-74
2023/03/26 14:57:27;;;;;;;10.60;1.73;;;21.40;59.80;;;;;;5015651;27;60515;-73
2023/03/26 14:59:54;;;;;;;12.50;1.98;;;21.60;59.30;;;;;;4970529;28;20096;-69
2023/03/26 15:02:39;;;;;;;12.65;1.70;;;21.80;58.00;;;;;;4988163;28;20399;-68
2023/03/26 15:05:14;;;;;;;8.45;1.80;;;21.90;57.80;;;;;;5008958;28;20050;-70
2023/03/26 15:08:02;;;;;;;11.07;1.73;;;22.00;57.80;;;;;;5014997;28;20042;-68
2023/03/26 15:10:54;;;;;;;8.10;1.75;;;22.00;58.00;;;;;;5007994;28;20116;-68
2023/03/26 15:13:41;;;;;;;11.90;1.70;;;22.00;58.00;;;;;;5008452;28;20042;-69
2023/03/26 15:16:30;;;;;;;12.02;1.60;;;22.00;58.20;;;;;;5012318;28;20050;-69
2023/03/26 15:19:00;;;;;;;12.95;1.58;;;22.00;58.20;;;;;;5011558;28;20062;-69
2023/03/26 15:22:00;;;;;;;6.37;1.50;;;22.00;58.30;;;;;;5013344;28;20090;-68
2023/03/26 15:24:59;;;;;;;12.20;1.90;;;22.00;58.40;;;;;;5015366;28;20125;-69
2023/03/26 15:28:04;;;;;;;7.70;1.30;;;22.00;58.30;;;;;;5010542;28;20049;-68
2023/03/26 15:31:09;;;;;;;9.88;1.27;;;22.10;58.30;;;;;;5014465;28;20104;-69
2023/03/26 15:34:11;;;;;;;9.35;1.52;;;22.10;58.50;;;;;;5012763;28;20429;-72
2023/03/26 15:37:02;;;;;;;11.43;1.10;;;22.00;58.80;;;;;;5016244;28;20120;-71
2023/03/26 15:40:07;;;;;;;8.45;1.50;;;22.10;58.70;;;;;;5012396;28;20042;-72
2023/03/26 15:43:09;;;;;;;7.47;1.52;;;22.00;58.60;;;;;;5013856;28;20053;-71
2023/03/26 15:45:46;;;;;;;9.10;1.38;;;22.00;58.50;;;;;;5007008;28;20042;-71
2023/03/26 15:48:33;;;;;;;8.40;1.50;;;22.00;58.60;;;;;;4998754;28;20392;-72
2023/03/26 15:51:15;;;;;;;8.10;1.53;;;22.00;59.30;;;;;;5003957;28;20427;-70
2023/03/26 15:53:54;;;;;;;7.93;1.42;;;21.90;59.50;;;;;;5001014;28;20050;-70
2023/03/26 15:56:42;;;;;;;6.63;1.10;;;21.80;59.70;;;;;;5004679;28;20043;-70
2023/03/26 15:59:12;;;;;;;7.18;1.17;;;21.70;59.70;;;;;;5003861;28;20050;-68
2023/03/26 16:02:02;;;;;;;8.30;1.10;;;21.60;59.70;;;;;;5004610;28;20121;-68
2023/03/26 16:04:53;;;;;;;8.90;1.60;;;21.60;59.50;;;;;;4997554;28;20038;-68
2023/03/26 16:07:25;;;;;;;9.73;1.48;;;21.60;59.80;;;;;;5002535;28;20069;-68
2023/03/26 16:10:18;;;;;;;13.35;1.42;;;21.60;59.80;;;;;;4991387;28;20484;-71
2023/03/26 16:12:45;;;;;;;9.40;1.27;;;21.60;59.80;;;;;;4972088;28;20050;-70
2023/03/26 16:15:14;;;;;;;8.15;1.23;;;21.60;60.00;;;;;;4989157;28;20046;-69
2023/03/26 16:18:10;;;;;;;12.07;1.43;;;21.60;59.90;;;;;;4990277;28;20573;-69
2023/03/26 16:20:49;;;;;;;6.78;1.33;;;21.50;60.00;;;;;;4986771;28;20054;-69
2023/03/26 16:23:29;;;;;;;13.02;1.23;;;21.50;60.20;;;;;;4991723;28;20493;-68
2023/03/26 16:26:11;;;;;;;8.30;1.58;;;21.50;60.20;;;;;;4991411;28;20081;-71
2023/03/26 16:28:44;;;;;;;12.93;1.38;;;21.50;60.30;;;;;;4993713;28;20038;-69
2023/03/26 16:31:13;;;;;;;8.67;1.00;;;21.50;60.40;;;;;;4993737;28;20054;-70
2023/03/26 16:34:04;;;;;;;9.68;1.25;;;21.50;60.40;;;;;;4980909;28;20099;-72
2023/03/26 16:36:44;;;;;;;13.18;1.65;;;21.50;60.50;;;;;;4987956;28;20089;-71
2023/03/26 16:39:37;;;;;;;10.48;1.20;;;21.50;60.40;;;;;;4988186;28;20042;-70
2023/03/26 16:42:26;;;;;;;8.88;1.33;;;21.50;60.50;;;;;;4986118;28;20093;-71
2023/03/26 16:45:16;;;;;;;13.37;1.40;;;21.60;61.40;;;;;;4972742;28;20034;-70
2023/03/26 16:48:09;;;;;;;11.05;1.25;;;21.60;60.70;;;;;;4987201;28;20389;-73
2023/03/26 16:50:45;;;;;;;15.43;1.25;;;21.70;60.40;;;;;;4993064;28;20037;-75
2023/03/26 16:53:44;;;;;;;9.65;1.15;;;21.60;60.40;;;;;;4997627;28;20064;-75
2023/03/26 16:56:24;;;;;;;12.10;1.27;;;21.70;60.10;;;;;;4979433;28;20129;-73
2023/03/26 16:58:57;;;;;;;8.43;1.07;;;21.70;60.20;;;;;;5002151;28;20042;-75
2023/03/26 17:01:33;;;;;;;5.13;0.93;;;21.60;60.30;;;;;;5011036;28;20043;-75
2023/03/26 17:04:16;;;;;;;8.27;1.40;;;21.60;60.30;;;;;;4996728;28;20052;-74
2023/03/26 17:07:02;;;;;;;9.85;1.20;;;21.60;60.40;;;;;;4995661;28;20046;-74
2023/03/26 17:09:54;;;;;;;7.53;1.30;;;21.50;60.50;;;;;;5016063;28;20578;-67
2023/03/26 17:12:41;;;;;;;10.33;1.33;;;21.60;61.00;;;;;;4993479;28;20057;-67
2023/03/26 17:15:27;;;;;;;9.55;1.15;;;21.90;59.50;;;;;;5008124;28;20069;-67
2023/03/26 17:18:25;;;;;;;7.72;1.05;;;22.10;58.80;;;;;;5001908;28;20562;-67
2023/03/26 17:21:19;;;;;;;7.72;0.90;;;22.20;58.20;;;;;;4997100;28;20431;-66
2023/03/26 17:24:03;;;;;;;9.93;1.20;;;22.30;57.90;;;;;;4990010;28;20065;-66
2023/03/26 17:26:51;;;;;;;7.90;1.07;;;22.40;57.70;;;;;;5000118;28;20518;-67
2023/03/26 17:29:42;;;;;;;5.75;0.80;;;22.60;57.40;;;;;;5004817;28;20053;-66
2023/03/26 17:32:13;;;;;;;8.15;1.30;;;22.60;57.30;;;;;;4993689;28;20054;-68
2023/03/26 17:34:49;;;;;;;9.05;1.02;;;22.70;57.10;;;;;;5003855;28;20121;-67
2023/03/26 17:37:17;;;;;;;9.00;1.02;;;22.90;56.90;;;;;;4998953;28;20073;-67
2023/03/26 17:39:47;;;;;;;7.13;0.97;;;23.00;56.90;;;;;;4995879;28;20046;-68
2023/03/26 17:42:24;;;;;;;10.52;1.08;;;23.00;56.70;;;;;;5007136;28;20499;-68
2023/03/26 17:45:32;;;;;;;9.35;0.90;;;23.10;56.70;;;;;;4993612;28;20052;-67
2023/03/26 17:48:16;;;;;;;9.77;0.98;;;23.20;56.70;;;;;;4971535;28;20138;-68
2023/03/26 17:51:02;;;;;;;6.82;1.30;;;23.30;56.70;;;;;;4975323;28;20046;-67
2023/03/26 17:53:32;;;;;;;8.77;1.13;;;23.30;56.70;;;;;;4989856;28;20377;-70
2023/03/26 17:56:10;;;;;;;7.30;0.85;;;23.40;56.70;;;;;;4996633;28;20097;-70
2023/03/26 17:58:47;;;;;;;9.00;0.82;;;23.40;56.70;;;;;;4990949;28;20049;-70
2023/03/26 18:01:33;;;;;;;8.23;0.77;;;23.40;56.70;;;;;;4994962;28;20038;-71
2023/03/26 18:04:07;;;;;;;10.18;1.50;;;23.50;56.70;;;;;;4996119;28;20046;-71
2023/03/26 18:06:37;;;;;;;9.20;1.00;;;23.50;56.50;;;;;;5005761;28;20066;-70
2023/03/26 18:09:31;;;;;;;7.50;1.00;;;23.50;56.20;;;;;;4991946;28;20125;-71
2023/03/26 18:12:33;;;;;;;13.02;1.13;;;23.50;56.70;;;;;;5006483;28;20059;-71
2023/03/26 18:15:23;;;;;;;8.25;0.90;;;23.60;57.20;;;;;;4980140;28;20468;-70
2023/03/26 18:18:00;;;;;;;7.18;0.70;;;23.60;57.20;;;;;;4974636;28;20070;-70
2023/03/26 18:20:28;;;;;;;7.17;0.90;;;23.60;57.10;;;;;;4983228;28;20038;-70
2023/03/26 18:22:56;;;;;;;8.20;0.90;;;23.60;57.10;;;;;;4993598;28;20069;-70
2023/03/26 18:25:30;;;;;;;6.65;0.80;;;23.60;57.00;;;;;;4999569;28;20069;-68
2023/03/26 18:28:00;;;;;;;7.53;1.00;;;23.50;57.10;;;;;;4993562;28;20046;-68
2023/03/26 18:30:28;;;;;;;8.57;0.90;;;23.50;57.10;;;;;;5000397;28;20046;-68
2023/03/26 18:33:12;;;;;;;7.07;0.97;;;23.50;57.00;;;;;;4998096;28;20068;-68
2023/03/26 18:35:45;;;;;;;12.25;1.20;;;23.50;57.30;;;;;;4998703;28;20084;-68
2023/03/26 18:38:21;;;;;;;5.88;1.00;;;23.40;57.30;;;;;;4999172;28;20044;-68
2023/03/26 18:41:05;;;;;;;6.20;0.75;;;23.40;57.30;;;;;;4996278;28;20034;-67
2023/03/26 18:43:33;;;;;;;4.88;1.02;;;23.40;57.50;;;;;;4999445;28;20048;-66
2023/03/26 18:46:12;;;;;;;5.90;0.90;;;23.40;57.70;;;;;;4995429;28;20383;-66
2023/03/26 18:48:39;;;;;;;7.78;1.00;;;23.40;57.80;;;;;;4998087;28;20724;-67
2023/03/26 18:51:07;;;;;;;8.73;0.98;;;23.40;58.00;;;;;;5002719;28;20042;-65
2023/03/26 18:53:50;;;;;;;5.50;0.77;;;23.40;58.00;;;;;;4997317;28;20041;-67
2023/03/26 18:56:47;;;;;;;8.85;1.10;;;23.40;58.30;;;;;;5002913;28;20052;-67
2023/03/26 18:59:31;;;;;;;4.93;1.07;;;23.30;58.30;;;;;;4985034;28;20053;-67
2023/03/26 19:02:03;;;;;;;6.80;1.00;;;23.30;58.30;;;;;;4997981;28;20105;-68
2023/03/26 19:04:32;;;;;;;10.75;1.00;;;23.20;58.20;;;;;;4985836;28;20060;-68
2023/03/26 19:07:00;;;;;;;5.90;0.90;;;23.20;58.30;;;;;;4996158;28;20126;-67
2023/03/26 19:09:28;;;;;;;5.60;1.00;;;23.10;58.40;;;;;;4996498;28;20037;-67
2023/03/26 19:12:17;;;;;;;6.43;1.27;;;23.10;58.30;;;;;;4994898;28;20053;-67
2023/03/26 19:15:13;;;;;;;7.47;1.88;;;23.10;58.30;;;;;;4997758;28;20038;-67
2023/03/26 19:17:47;;;;;;;4.88;1.38;;;23.00;58.40;;;;;;4991225;28;20109;-67
2023/03/26 19:20:21;;;;;;;8.00;1.58;;;23.00;58.40;;;;;;5001736;28;20568;-67
2023/03/26 19:22:49;;;;;;;6.80;1.75;;;23.00;58.30;;;;;;5000716;28;20038;-68
2023/03/26 19:25:21;;;;;;;5.23;1.40;;;22.90;58.30;;;;;;4995910;28;20046;-67
2023/03/26 19:27:50;;;;;;;6.68;1.42;;;22.90;58.30;;;;;;4994327;28;20455;-67
2023/03/26 19:30:27;;;;;;;5.45;1.40;;;22.80;58.40;;;;;;4992442;28;20038;-67
2023/03/26 19:32:59;;;;;;;5.47;1.60;;;22.80;58.30;;;;;;4997789;28;20446;-67
2023/03/26 19:35:41;;;;;;;5.97;1.38;;;22.80;58.40;;;;;;5000161;28;20037;-67
2023/03/26 19:38:22;;;;;;;6.83;1.80;;;22.70;58.40;;;;;;4999125;28;20044;-67
2023/03/26 19:40:51;;;;;;;5.90;1.70;;;22.60;58.40;;;;;;4991941;28;20093;-68
2023/03/26 19:43:19;;;;;;;6.70;1.58;;;22.60;58.40;;;;;;4999163;28;20054;-66
2023/03/26 19:45:49;;;;;;;6.15;1.40;;;22.60;58.40;;;;;;4991494;28;20377;-67
2023/03/26 19:48:36;;;;;;;6.35;1.52;;;22.60;58.40;;;;;;4989364;28;20121;-65
2023/03/26 19:51:31;;;;;;;6.23;1.57;;;22.50;58.40;;;;;;5003964;28;20514;-66
2023/03/26 19:54:01;;;;;;;5.43;1.23;;;22.60;58.50;;;;;;5001270;28;20046;-67
2023/03/26 19:56:29;;;;;;;9.10;1.52;;;22.50;58.60;;;;;;5000357;28;20128;-66
2023/03/26 19:58:57;;;;;;;6.60;1.73;;;22.50;58.70;;;;;;5002384;28;20093;-68
2023/03/26 20:01:27;;;;;;;6.40;1.60;;;22.50;58.70;;;;;;4992945;28;20546;-66
2023/03/26 20:03:57;;;;;;;6.60;1.83;;;22.50;58.80;;;;;;4994260;28;20039;-66
2023/03/26 20:06:28;;;;;;;8.35;2.67;;;22.50;58.70;;;;;;4998202;28;20381;-68
2023/03/26 20:09:11;;;;;;;10.05;3.90;;;22.50;58.80;;;;;;5009126;28;20046;-66
2023/03/26 20:11:39;;;;;;;10.32;4.15;;;22.40;59.20;;;;;;4999830;28;20396;-67
2023/03/26 20:14:16;;;;;;;12.93;4.10;;;22.50;59.40;;;;;;5006693;28;20077;-67
2023/03/26 20:16:44;;;;;;;11.97;4.07;;;22.40;59.40;;;;;;4991149;28;20046;-67
2023/03/26 20:19:13;;;;;;;14.75;4.20;;;22.40;59.60;;;;;;4998919;28;20058;-68
2023/03/26 20:21:41;;;;;;;10.27;4.00;;;22.40;59.50;;;;;;4996445;28;20534;-68
2023/03/26 20:24:11;;;;;;;10.18;3.40;;;22.40;59.40;;;;;;4992463;28;20055;-68
2023/03/26 20:26:39;;;;;;;11.35;3.88;;;22.40;59.50;;;;;;5002997;28;20073;-68
2023/03/26 20:29:06;;;;;;;11.03;3.67;;;22.40;59.50;;;;;;4990383;28;20121;-68
2023/03/26 20:31:33;;;;;;;10.43;3.55;;;22.40;59.50;;;;;;5018472;28;20500;-68
2023/03/26 20:34:01;;;;;;;8.90;3.33;;;22.40;59.50;;;;;;4997105;28;20052;-67
2023/03/26 20:36:28;;;;;;;11.35;3.08;;;22.40;59.50;;;;;;4996477;28;20437;-68
2023/03/26 20:39:06;;;;;;;10.32;3.83;;;22.40;59.50;;;;;;5007802;28;20520;-68
2023/03/26 20:41:37;;;;;;;9.97;3.43;;;22.40;59.50;;;;;;4986794;28;20403;-67
2023/03/26 20:44:12;;;;;;;9.15;3.90;;;22.40;59.50;;;;;;5003228;28;20052;-68
2023/03/26 20:46:41;;;;;;;9.10;4.00;;;22.40;59.60;;;;;;5002610;28;20436;-67
2023/03/26 20:49:09;;;;;;;9.90;3.50;;;22.30;59.60;;;;;;4999740;28;20124;-68
2023/03/26 20:51:37;;;;;;;9.95;3.40;;;22.40;59.50;;;;;;4993831;28;20446;-68
2023/03/26 20:54:07;;;;;;;10.77;3.50;;;22.30;59.80;;;;;;4998603;28;20054;-68
